createdAt,value
2022-10-28T00:08:58.167Z,26.558
2022-10-28T00:24:00.103Z,26.052
2022-10-28T00:39:02.191Z,26.221
2022-10-28T00:54:04.016Z,25.88
2022-10-28T01:09:05.880Z,26.227
2022-10-28T01:24:07.694Z,25.979
2022-10-28T01:39:09.524Z,24.236
2022-10-28T01:54:11.392Z,24.4
2022-10-28T02:09:13.219Z,24.895
2022-10-28T02:24:15.150Z,25.092
2022-10-28T02:39:17.016Z,24.756
2022-10-28T02:54:18.886Z,24.861
2022-10-28T03:09:20.745Z,24.961
2022-10-28T03:24:22.604Z,24.489
2022-10-28T03:39:24.441Z,23.072
2022-10-28T03:54:26.316Z,23.902
2022-10-28T04:09:28.185Z,24.04
2022-10-28T04:24:30.043Z,24.199
2022-10-28T04:39:31.928Z,24.165
2022-10-28T04:54:33.755Z,23.819
2022-10-28T05:09:35.617Z,23.777
2022-10-28T05:24:37.467Z,23.171
2022-10-28T05:39:39.336Z,23.004
2022-10-28T05:54:41.288Z,22.499
2022-10-28T06:09:43.280Z,24.722
2022-10-28T06:24:43.580Z,23.973
2022-10-28T06:39:45.427Z,23.779
2022-10-28T06:54:48.980Z,24.479
2022-10-28T07:09:50.805Z,24.075
2022-10-28T07:24:52.668Z,23.828
2022-10-28T07:39:54.522Z,24.381
2022-10-28T07:54:56.342Z,23.68
2022-10-28T08:09:59.598Z,23.273
2022-10-28T08:25:01.448Z,23.575
2022-10-28T08:40:03.258Z,23.554
2022-10-28T08:55:05.328Z,23.943
2022-10-28T09:10:07.354Z,24.072
2022-10-28T09:25:09.290Z,23.257
2022-10-28T09:40:11.150Z,23.375
2022-10-28T09:55:12.995Z,23.222
2022-10-28T10:10:14.820Z,22.506
2022-10-28T10:25:16.666Z,23.177
2022-10-28T10:40:18.487Z,22.644
2022-10-28T10:55:20.327Z,23.393
2022-10-28T11:10:22.190Z,24.89
2022-10-28T11:25:24.064Z,24.2
2022-10-28T11:40:25.882Z,23.7
2022-10-28T11:55:27.733Z,24.51
2022-10-28T12:10:29.564Z,23.865
2022-10-28T12:25:31.394Z,24.274
2022-10-28T12:40:33.251Z,24.354
2022-10-28T12:55:35.102Z,25.655
2022-10-28T13:10:36.972Z,25.866
2022-10-28T13:25:38.840Z,26.513
2022-10-28T13:40:40.708Z,26.718
2022-10-28T13:55:42.561Z,26.865
2022-10-28T14:10:44.456Z,28.34
2022-10-28T14:25:46.284Z,26.485
2022-10-28T14:40:48.109Z,26.955
2022-10-28T14:55:49.939Z,26.503
2022-10-28T15:10:51.825Z,26.627
2022-10-28T15:25:53.809Z,26.646
2022-10-28T15:40:55.679Z,29.438
2022-10-28T15:56:07.691Z,27.336
2022-10-28T16:11:09.929Z,27.421
2022-10-28T16:26:11.853Z,27.326
2022-10-28T16:41:13.849Z,27.922
2022-10-28T16:56:16.403Z,28.476
2022-10-28T17:11:18.755Z,29.666
2022-10-28T17:26:20.832Z,28.325
2022-10-28T17:41:22.734Z,28.41
2022-10-28T17:56:24.680Z,28.165
2022-10-28T18:11:26.648Z,29.144
2022-10-28T18:26:28.632Z,28.523
2022-10-28T18:41:30.521Z,28.598
2022-10-28T18:56:32.461Z,30.338
2022-10-28T19:11:34.401Z,29.44
2022-10-28T19:26:36.419Z,28.677
2022-10-28T19:41:38.402Z,28.605
2022-10-28T19:56:40.320Z,27.656
2022-10-28T20:11:42.256Z,28.552
2022-10-28T20:26:44.241Z,27.982
2022-10-28T20:41:46.179Z,27.436
2022-10-28T20:56:48.143Z,28.657
2022-10-28T21:11:50.119Z,28.93
2022-10-28T21:26:52.272Z,29.978
2022-10-28T21:41:54.268Z,28.195
2022-10-28T21:56:56.177Z,27.71
2022-10-28T22:11:58.111Z,27.192
2022-10-28T22:27:00.034Z,26.52
2022-10-28T22:42:01.981Z,26.241
2022-10-28T22:57:03.967Z,25.763
2022-10-28T23:12:05.929Z,25.639
2022-10-28T23:27:07.836Z,25.112
2022-10-28T23:42:09.786Z,26.026
2022-10-28T23:57:11.743Z,25.625
